createdAt,value
2018-04-29T00:00:01.411Z,7.82
2018-04-29T00:01:07.573Z,7.84
2018-04-29T00:02:13.800Z,7.81
2018-04-29T00:03:19.490Z,7.81
2018-04-29T00:04:26.228Z,7.80
2018-04-29T00:05:32.387Z,7.81
2018-04-29T00:06:38.596Z,7.79
2018-04-29T00:07:44.788Z,7.77
2018-04-29T00:08:51.133Z,7.80
2018-04-29T00:09:57.401Z,7.87
2018-04-29T00:11:02.950Z,7.90
2018-04-29T00:12:09.717Z,7.88
2018-04-29T00:13:16.911Z,7.85
2018-04-29T00:14:22.153Z,7.83
2018-04-29T00:15:28.177Z,7.77
2018-04-29T00:16:34.396Z,7.72
2018-04-29T00:17:40.560Z,7.68
2018-04-29T00:18:46.751Z,7.66
2018-04-29T00:19:52.960Z,7.60
2018-04-29T00:20:59.133Z,7.50
2018-04-29T00:22:05.336Z,7.44
2018-04-29T00:23:11.531Z,7.38
2018-04-29T00:24:17.754Z,7.32
2018-04-29T00:25:23.920Z,7.29
2018-04-29T00:26:30.094Z,7.26
2018-04-29T00:27:36.417Z,7.22
2018-04-29T00:28:42.470Z,7.22
2018-04-29T00:29:48.690Z,7.21
2018-04-29T00:30:54.840Z,7.25
2018-04-29T00:32:01.071Z,7.24
2018-04-29T00:33:06.735Z,7.20
2018-04-29T00:34:13.455Z,7.15
2018-04-29T00:35:19.582Z,7.13
2018-04-29T00:36:25.777Z,7.14
2018-04-29T00:37:31.952Z,7.13
2018-04-29T00:38:38.152Z,7.07
2018-04-29T00:39:44.413Z,7.02
2018-04-29T00:40:50.538Z,6.98
2018-04-29T00:41:56.699Z,6.92
2018-04-29T00:43:02.857Z,6.89
2018-04-29T00:44:09.044Z,6.86
2018-04-29T00:45:15.242Z,6.81
2018-04-29T00:46:21.400Z,6.79
2018-04-29T00:47:27.581Z,6.76
2018-04-29T00:48:33.754Z,6.73
2018-04-29T00:49:39.970Z,6.74
2018-04-29T00:50:46.123Z,6.77
2018-04-29T00:51:51.802Z,6.76
2018-04-29T00:52:58.486Z,6.70
2018-04-29T00:54:04.665Z,6.72
2018-04-29T00:55:10.842Z,6.74
2018-04-29T00:56:16.996Z,6.73
2018-04-29T00:57:23.185Z,6.68
2018-04-29T00:58:29.343Z,6.63
2018-04-29T00:59:35.551Z,6.64
2018-04-29T01:00:41.702Z,6.65
2018-04-29T01:01:47.871Z,6.65
2018-04-29T01:02:54.056Z,6.61
2018-04-29T01:04:00.233Z,6.54
2018-04-29T01:05:06.415Z,6.47
2018-04-29T01:06:12.565Z,6.42
2018-04-29T01:07:18.746Z,6.33
2018-04-29T01:08:25.892Z,6.33
2018-04-29T01:09:31.099Z,6.40
2018-04-29T01:10:37.243Z,6.46
2018-04-29T01:11:43.397Z,6.42
2018-04-29T01:12:49.774Z,6.39
2018-04-29T01:13:55.731Z,6.43
2018-04-29T01:15:01.925Z,6.51
2018-04-29T01:16:08.065Z,6.53
2018-04-29T01:17:14.265Z,6.49
2018-04-29T01:18:20.418Z,6.45
2018-04-29T01:19:26.593Z,6.42
2018-04-29T01:20:32.244Z,6.40
2018-04-29T01:21:38.405Z,6.39
2018-04-29T01:22:45.070Z,6.39
2018-04-29T01:23:51.234Z,6.36
2018-04-29T01:24:57.403Z,6.32
2018-04-29T01:26:03.053Z,6.22
2018-04-29T01:27:15.054Z,6.15
2018-04-29T01:28:24.157Z,6.06
2018-04-29T01:29:30.322Z,6.05
2018-04-29T01:30:36.464Z,6.07
2018-04-29T01:31:42.620Z,6.09
2018-04-29T01:32:48.789Z,6.09
2018-04-29T01:33:54.950Z,6.12
2018-04-29T01:35:01.133Z,6.13
2018-04-29T01:36:07.250Z,6.15
2018-04-29T01:37:13.408Z,6.18
2018-04-29T01:38:19.593Z,6.21
2018-04-29T01:39:25.283Z,6.28
2018-04-29T01:40:31.893Z,6.37
2018-04-29T01:41:38.051Z,6.46
2018-04-29T01:42:44.222Z,6.54
2018-04-29T01:43:50.380Z,6.60
2018-04-29T01:44:56.552Z,6.67
2018-04-29T01:46:02.677Z,6.71
2018-04-29T01:47:08.840Z,6.75
2018-04-29T01:48:14.505Z,6.76
2018-04-29T01:49:21.159Z,6.73
2018-04-29T01:50:27.345Z,6.68
2018-04-29T01:51:33.487Z,6.62
2018-04-29T01:52:39.647Z,6.57
2018-04-29T01:53:45.811Z,6.52
2018-04-29T01:54:51.992Z,6.49
2018-04-29T01:55:58.142Z,6.44
2018-04-29T01:57:04.380Z,6.40
2018-04-29T01:58:10.443Z,6.41
2018-04-29T01:59:16.602Z,6.38
2018-04-29T02:00:22.780Z,6.37
2018-04-29T02:01:28.932Z,6.34
2018-04-29T02:02:35.076Z,6.28
2018-04-29T02:03:41.237Z,6.20
2018-04-29T02:04:47.413Z,6.19
2018-04-29T02:05:53.544Z,6.18
2018-04-29T02:06:59.215Z,6.15
2018-04-29T02:08:05.870Z,6.14
2018-04-29T02:09:12.009Z,6.02
2018-04-29T02:10:18.189Z,5.94
2018-04-29T02:11:24.382Z,5.89
2018-04-29T02:12:30.475Z,5.85
2018-04-29T02:13:36.623Z,5.81
2018-04-29T02:14:42.799Z,5.76
2018-04-29T02:15:48.942Z,5.73
2018-04-29T02:16:55.084Z,5.72
2018-04-29T02:18:01.233Z,5.69
2018-04-29T02:19:07.362Z,5.68
2018-04-29T02:20:13.535Z,5.63
2018-04-29T02:21:19.172Z,5.64
2018-04-29T02:22:25.801Z,5.67
2018-04-29T02:23:31.949Z,5.69
2018-04-29T02:24:38.133Z,5.68
2018-04-29T02:25:44.251Z,5.62
2018-04-29T02:26:50.391Z,5.59
2018-04-29T02:27:56.523Z,5.59
2018-04-29T02:29:02.677Z,5.56
2018-04-29T02:30:08.867Z,5.57
2018-04-29T02:31:14.476Z,5.56
2018-04-29T02:32:21.116Z,5.54
2018-04-29T02:33:27.942Z,5.54
2018-04-29T02:34:33.418Z,5.50
2018-04-29T02:35:39.570Z,5.47
2018-04-29T02:36:45.679Z,5.40
2018-04-29T02:37:51.822Z,5.38
2018-04-29T02:38:57.967Z,5.39
2018-04-29T02:40:04.119Z,5.39
2018-04-29T02:41:10.238Z,5.38
2018-04-29T02:42:16.393Z,5.36
2018-04-29T02:43:22.530Z,5.34
2018-04-29T02:44:29.656Z,5.34
2018-04-29T02:45:34.820Z,5.28
2018-04-29T02:46:40.931Z,5.20
2018-04-29T02:47:47.077Z,5.17
2018-04-29T02:48:53.205Z,5.15
2018-04-29T02:49:59.384Z,5.11
2018-04-29T02:51:05.498Z,5.10
2018-04-29T02:52:11.631Z,5.09
2018-04-29T02:53:17.760Z,5.12
2018-04-29T02:54:23.895Z,5.11
2018-04-29T02:55:30.062Z,5.10
2018-04-29T02:56:36.177Z,5.09
2018-04-29T02:57:42.384Z,5.06
2018-04-29T02:58:48.430Z,5.05
2018-04-29T02:59:54.595Z,5.06
2018-04-29T03:01:00.694Z,5.01
2018-04-29T03:02:06.827Z,4.95
2018-04-29T03:03:13.954Z,4.93
2018-04-29T03:04:19.107Z,4.92
2018-04-29T03:05:25.258Z,4.93
2018-04-29T03:06:31.347Z,4.95
2018-04-29T03:07:37.486Z,4.97
2018-04-29T03:08:43.609Z,4.99
2018-04-29T03:09:49.768Z,5.07
2018-04-29T03:10:55.872Z,5.14
2018-04-29T03:12:02.006Z,5.22
2018-04-29T03:13:08.118Z,5.32
2018-04-29T03:14:14.265Z,5.32
2018-04-29T03:15:20.417Z,5.29
2018-04-29T03:16:26.519Z,5.16
2018-04-29T03:17:32.653Z,5.03
2018-04-29T03:18:38.765Z,4.95
2018-04-29T03:19:44.898Z,4.87
2018-04-29T03:20:51.036Z,4.79
2018-04-29T03:21:57.158Z,4.77
2018-04-29T03:23:02.773Z,4.75
2018-04-29T03:24:09.391Z,4.75
2018-04-29T03:25:15.534Z,4.83
2018-04-29T03:26:21.638Z,4.94
2018-04-29T03:27:27.298Z,5.00
2018-04-29T03:28:33.895Z,5.01
2018-04-29T03:29:40.008Z,5.05
2018-04-29T03:30:46.162Z,5.06
2018-04-29T03:31:52.263Z,4.99
2018-04-29T03:32:58.389Z,4.94
2018-04-29T03:34:04.495Z,4.86
2018-04-29T03:35:10.633Z,4.82
2018-04-29T03:36:16.743Z,4.72
2018-04-29T03:37:22.857Z,4.65
2018-04-29T03:38:28.980Z,4.61
2018-04-29T03:39:35.125Z,4.63
2018-04-29T03:40:41.242Z,4.80
2018-04-29T03:41:47.359Z,4.86
2018-04-29T03:42:53.506Z,4.82
2018-04-29T03:43:59.592Z,4.73
2018-04-29T03:45:05.737Z,4.69
2018-04-29T03:46:11.827Z,4.64
2018-04-29T03:47:17.944Z,4.64
2018-04-29T03:48:24.055Z,4.69
2018-04-29T03:49:30.188Z,4.95
2018-04-29T03:50:36.418Z,5.21
2018-04-29T03:51:42.416Z,5.37
2018-04-29T03:52:48.541Z,5.49
2018-04-29T03:53:54.662Z,5.59
2018-04-29T03:55:00.830Z,5.71
2018-04-29T03:56:06.929Z,5.78
2018-04-29T03:57:13.034Z,5.80
2018-04-29T03:58:19.150Z,5.68
2018-04-29T03:59:25.276Z,5.51
2018-04-29T04:00:31.429Z,5.37
2018-04-29T04:01:37.536Z,5.29
2018-04-29T04:02:43.703Z,5.21
2018-04-29T04:03:49.293Z,5.09
2018-04-29T04:04:55.918Z,4.97
2018-04-29T04:06:03.066Z,4.86
2018-04-29T04:07:08.192Z,4.79
2018-04-29T04:08:14.383Z,4.81
2018-04-29T04:09:20.429Z,4.89
2018-04-29T04:10:26.590Z,5.04
2018-04-29T04:11:32.689Z,5.20
2018-04-29T04:12:38.805Z,5.30
2018-04-29T04:13:44.421Z,5.40
2018-04-29T04:14:51.045Z,5.48
2018-04-29T04:15:57.198Z,5.48
2018-04-29T04:17:03.304Z,5.40
2018-04-29T04:18:09.418Z,5.27
2018-04-29T04:19:15.545Z,5.11
2018-04-29T04:20:21.701Z,4.98
2018-04-29T04:21:27.810Z,4.89
2018-04-29T04:22:33.922Z,4.86
2018-04-29T04:23:40.133Z,4.89
2018-04-29T04:24:46.197Z,4.90
2018-04-29T04:25:52.415Z,4.94
2018-04-29T04:26:58.435Z,4.99
2018-04-29T04:28:04.068Z,4.96
2018-04-29T04:29:10.681Z,4.93
2018-04-29T04:30:16.829Z,4.88
2018-04-29T04:31:22.933Z,4.80
2018-04-29T04:32:29.064Z,4.82
2018-04-29T04:33:35.195Z,4.89
2018-04-29T04:34:41.313Z,4.88
2018-04-29T04:35:47.467Z,4.87
2018-04-29T04:36:53.588Z,4.89
2018-04-29T04:37:59.708Z,4.90
2018-04-29T04:39:05.913Z,5.02
2018-04-29T04:40:12.051Z,5.26
2018-04-29T04:41:18.121Z,5.54
2018-04-29T04:42:24.226Z,5.76
2018-04-29T04:43:30.391Z,5.86
2018-04-29T04:44:36.484Z,5.94
2018-04-29T04:45:42.146Z,5.97
2018-04-29T04:46:48.758Z,5.98
2018-04-29T04:47:54.882Z,5.91
2018-04-29T04:49:01.038Z,5.95
2018-04-29T04:50:07.164Z,5.97
2018-04-29T04:51:13.328Z,5.97
2018-04-29T04:52:19.439Z,5.95
2018-04-29T04:53:25.584Z,5.86
2018-04-29T04:54:31.729Z,5.83
2018-04-29T04:55:37.878Z,5.83
2018-04-29T04:56:44.007Z,5.92
2018-04-29T04:57:50.145Z,6.13
2018-04-29T04:58:56.386Z,6.22
2018-04-29T05:00:02.431Z,6.33
2018-04-29T05:01:08.602Z,6.47
2018-04-29T05:02:14.220Z,6.57
2018-04-29T05:03:20.873Z,6.76
2018-04-29T05:04:27.065Z,6.90
2018-04-29T05:05:33.189Z,7.00
2018-04-29T05:06:39.318Z,7.08
2018-04-29T05:07:45.478Z,7.06
2018-04-29T05:08:51.636Z,7.09
2018-04-29T05:09:57.790Z,7.15
2018-04-29T05:11:03.967Z,7.31
2018-04-29T05:12:10.108Z,7.45
2018-04-29T05:13:16.257Z,7.63
2018-04-29T05:14:22.431Z,7.89
2018-04-29T05:15:28.644Z,8.23
2018-04-29T05:16:34.812Z,8.60
2018-04-29T05:17:40.967Z,8.86
2018-04-29T05:18:47.140Z,9.06
2018-04-29T05:19:53.361Z,9.20
2018-04-29T05:20:59.551Z,9.37
2018-04-29T05:22:05.737Z,9.49
2018-04-29T05:23:11.929Z,9.57
2018-04-29T05:24:18.132Z,9.56
2018-04-29T05:25:24.394Z,9.56
2018-04-29T05:26:30.538Z,9.58
2018-04-29T05:27:36.713Z,9.61
2018-04-29T05:28:42.430Z,9.62
2018-04-29T05:29:49.132Z,9.72
2018-04-29T05:30:55.354Z,9.86
2018-04-29T05:32:01.053Z,10.02
2018-04-29T05:33:07.755Z,10.20
2018-04-29T05:34:13.971Z,10.42
2018-04-29T05:35:20.290Z,10.61
2018-04-29T05:36:26.468Z,10.81
2018-04-29T05:37:33.649Z,11.00
2018-04-29T05:38:38.920Z,11.17
2018-04-29T05:39:45.146Z,11.28
2018-04-29T05:40:51.407Z,11.35
2018-04-29T05:41:57.629Z,11.44
2018-04-29T05:43:03.905Z,11.56
2018-04-29T05:44:10.139Z,11.69
2018-04-29T05:45:16.412Z,11.82
2018-04-29T05:46:22.720Z,11.96
2018-04-29T05:47:28.960Z,12.12
2018-04-29T05:48:35.224Z,12.28
2018-04-29T05:49:41.509Z,12.46
2018-04-29T05:50:47.820Z,12.64
2018-04-29T05:51:54.087Z,12.88
2018-04-29T05:53:00.397Z,13.09
2018-04-29T05:54:06.725Z,13.23
2018-04-29T05:55:12.505Z,13.34
2018-04-29T05:56:19.318Z,13.58
2018-04-29T05:57:25.630Z,13.78
2018-04-29T05:58:31.936Z,13.80
2018-04-29T05:59:37.773Z,13.80
2018-04-29T06:00:44.620Z,13.72
2018-04-29T06:01:50.906Z,13.62
2018-04-29T06:02:57.240Z,13.51
2018-04-29T06:04:03.566Z,13.44
2018-04-29T06:05:09.867Z,13.38
2018-04-29T06:06:16.233Z,13.39
2018-04-29T06:07:22.529Z,13.41
2018-04-29T06:08:28.844Z,13.42
2018-04-29T06:09:35.179Z,13.42
2018-04-29T06:10:41.036Z,13.45
2018-04-29T06:11:47.334Z,13.57
2018-04-29T06:12:54.163Z,13.69
2018-04-29T06:14:00.572Z,13.88
2018-04-29T06:15:06.827Z,14.07
2018-04-29T06:16:13.201Z,14.22
2018-04-29T06:17:19.488Z,14.40
2018-04-29T06:18:25.845Z,14.56
2018-04-29T06:19:31.688Z,14.61
2018-04-29T06:20:38.734Z,14.58
2018-04-29T06:21:44.906Z,14.49
2018-04-29T06:22:51.238Z,14.35
2018-04-29T06:23:57.596Z,14.20
2018-04-29T06:25:03.950Z,14.01
2018-04-29T06:26:10.479Z,13.88
2018-04-29T06:27:16.644Z,13.71
2018-04-29T06:28:22.990Z,13.56
2018-04-29T06:29:29.370Z,13.46
2018-04-29T06:30:35.690Z,13.35
2018-04-29T06:31:42.536Z,13.25
2018-04-29T06:32:48.384Z,13.12
2018-04-29T06:33:54.725Z,13.01
2018-04-29T06:35:01.047Z,12.87
2018-04-29T06:36:07.401Z,12.71
2018-04-29T06:37:13.705Z,12.56
2018-04-29T06:38:20.042Z,12.40
2018-04-29T06:39:25.880Z,12.30
2018-04-29T06:40:32.235Z,12.21
2018-04-29T06:41:39.054Z,12.17
2018-04-29T06:42:44.869Z,12.16
2018-04-29T06:43:51.728Z,12.22
2018-04-29T06:44:58.051Z,12.27
2018-04-29T06:46:04.407Z,12.36
2018-04-29T06:47:10.721Z,12.31
2018-04-29T06:48:17.078Z,12.20
2018-04-29T06:49:23.397Z,12.20
2018-04-29T06:50:29.745Z,12.21
2018-04-29T06:51:36.122Z,12.27
2018-04-29T06:52:42.562Z,12.24
2018-04-29T06:53:48.852Z,12.13
2018-04-29T06:54:54.940Z,12.14
2018-04-29T06:56:00.985Z,12.16
2018-04-29T06:57:07.309Z,12.15
2018-04-29T06:58:14.161Z,12.17
2018-04-29T06:59:20.010Z,12.19
2018-04-29T07:00:26.849Z,12.24
2018-04-29T07:01:33.214Z,12.26
2018-04-29T07:02:39.542Z,12.31
2018-04-29T07:03:45.895Z,12.43
2018-04-29T07:04:52.250Z,12.57
2018-04-29T07:05:58.615Z,12.69
2018-04-29T07:07:04.948Z,12.72
2018-04-29T07:08:11.343Z,12.77
2018-04-29T07:09:17.676Z,12.83
2018-04-29T07:10:24.029Z,12.91
2018-04-29T07:11:30.422Z,12.98
2018-04-29T07:12:36.270Z,13.02
2018-04-29T07:13:43.130Z,13.06
2018-04-29T07:14:49.483Z,13.09
2018-04-29T07:15:55.875Z,13.13
2018-04-29T07:17:01.719Z,13.12
2018-04-29T07:18:08.081Z,13.09
2018-04-29T07:19:14.421Z,12.96
2018-04-29T07:20:21.267Z,12.85
2018-04-29T07:21:27.142Z,12.81
2018-04-29T07:22:33.955Z,12.68
2018-04-29T07:23:40.381Z,12.65
2018-04-29T07:24:46.686Z,12.69
2018-04-29T07:25:54.019Z,12.71
2018-04-29T07:26:59.370Z,12.74
2018-04-29T07:28:05.213Z,12.79
2018-04-29T07:29:13.049Z,12.81
2018-04-29T07:30:17.921Z,12.92
2018-04-29T07:31:24.803Z,13.04
2018-04-29T07:32:31.147Z,13.14
2018-04-29T07:33:37.506Z,13.24
2018-04-29T07:34:43.866Z,13.37
2018-04-29T07:35:49.736Z,13.53
2018-04-29T07:36:56.144Z,13.69
2018-04-29T07:38:02.996Z,13.88
2018-04-29T07:39:08.908Z,14.09
2018-04-29T07:40:15.775Z,14.32
2018-04-29T07:41:22.212Z,14.65
2018-04-29T07:42:28.596Z,15.01
2018-04-29T07:43:34.539Z,15.23
2018-04-29T07:44:41.449Z,15.39
2018-04-29T07:45:47.895Z,15.53
2018-04-29T07:46:54.413Z,15.79
2018-04-29T07:48:00.784Z,16.12
2018-04-29T07:49:07.238Z,16.35
2018-04-29T07:50:13.212Z,16.45
2018-04-29T07:51:20.190Z,16.31
2018-04-29T07:52:26.675Z,15.94
2018-04-29T07:53:33.079Z,15.68
2018-04-29T07:54:39.528Z,15.41
2018-04-29T07:55:46.957Z,15.09
2018-04-29T07:56:52.422Z,14.83
2018-04-29T07:57:59.151Z,14.56
2018-04-29T07:59:04.745Z,14.38
2018-04-29T08:00:11.664Z,14.22
2018-04-29T08:01:18.092Z,14.05
2018-04-29T08:02:23.983Z,13.89
2018-04-29T08:03:30.864Z,13.77
2018-04-29T08:04:37.264Z,13.66
2018-04-29T08:05:43.663Z,13.59
2018-04-29T08:06:50.084Z,13.57
2018-04-29T08:07:57.433Z,13.61
2018-04-29T08:09:02.815Z,13.64
2018-04-29T08:10:09.212Z,13.67
2018-04-29T08:11:15.609Z,13.73
2018-04-29T08:12:21.977Z,13.84
2018-04-29T08:13:28.388Z,13.93
2018-04-29T08:14:34.757Z,13.97
2018-04-29T08:15:41.185Z,13.99
2018-04-29T08:16:47.566Z,14.16
2018-04-29T08:17:53.448Z,14.45
2018-04-29T08:19:00.394Z,14.62
2018-04-29T08:20:06.766Z,14.54
2018-04-29T08:21:13.194Z,14.41
2018-04-29T08:22:19.088Z,14.41
2018-04-29T08:23:25.504Z,14.50
2018-04-29T08:24:31.926Z,14.58
2018-04-29T08:25:38.333Z,14.63
2018-04-29T08:26:44.798Z,14.62
2018-04-29T08:27:52.681Z,14.72
2018-04-29T08:28:58.625Z,14.72
2018-04-29T08:30:04.142Z,14.71
2018-04-29T08:31:10.989Z,14.78
2018-04-29T08:32:16.947Z,14.95
2018-04-29T08:33:23.359Z,15.24
2018-04-29T08:34:29.786Z,15.45
2018-04-29T08:35:36.721Z,15.58
2018-04-29T08:36:43.221Z,15.66
2018-04-29T08:37:49.626Z,15.74
2018-04-29T08:38:56.086Z,15.94
2018-04-29T08:40:02.530Z,16.14
2018-04-29T08:41:09.007Z,16.08
2018-04-29T08:42:15.484Z,16.08
2018-04-29T08:43:22.013Z,16.02
2018-04-29T08:44:28.393Z,15.99
2018-04-29T08:45:34.873Z,15.85
2018-04-29T08:46:41.333Z,15.51
2018-04-29T08:47:47.288Z,15.13
2018-04-29T08:48:53.718Z,14.80
2018-04-29T08:50:00.762Z,14.60
2018-04-29T08:51:07.111Z,14.52
2018-04-29T08:52:13.557Z,14.53
2018-04-29T08:53:19.979Z,14.64
2018-04-29T08:54:25.908Z,14.73
2018-04-29T08:55:32.840Z,14.72
2018-04-29T08:56:39.321Z,14.71
2018-04-29T08:57:45.222Z,14.70
2018-04-29T08:58:52.140Z,14.76
2018-04-29T08:59:59.569Z,14.79
2018-04-29T09:01:06.007Z,14.78
2018-04-29T09:02:11.442Z,14.67
2018-04-29T09:03:18.395Z,14.60
2018-04-29T09:04:24.271Z,14.45
2018-04-29T09:05:30.204Z,14.34
2018-04-29T09:06:37.137Z,14.28
2018-04-29T09:07:43.025Z,14.27
2018-04-29T09:08:49.931Z,14.26
2018-04-29T09:09:56.347Z,14.26
2018-04-29T09:11:02.767Z,14.29
2018-04-29T09:12:09.194Z,14.31
2018-04-29T09:13:15.295Z,14.36
2018-04-29T09:14:22.020Z,14.41
2018-04-29T09:15:28.440Z,14.45
2018-04-29T09:16:34.885Z,14.61
2018-04-29T09:17:42.349Z,14.72
2018-04-29T09:18:47.781Z,14.81
2018-04-29T09:19:54.165Z,14.86
2018-04-29T09:21:00.621Z,15.03
2018-04-29T09:22:07.112Z,15.20
2018-04-29T09:23:13.530Z,15.33
2018-04-29T09:24:20.002Z,15.48
2018-04-29T09:25:25.981Z,15.57
2018-04-29T09:26:32.474Z,15.61
2018-04-29T09:27:39.420Z,15.66
2018-04-29T09:28:45.902Z,15.80
2018-04-29T09:29:52.385Z,15.88
2018-04-29T09:30:58.863Z,15.98
2018-04-29T09:32:05.389Z,16.06
2018-04-29T09:33:11.864Z,16.03
2018-04-29T09:34:18.381Z,15.95
2018-04-29T09:35:24.885Z,16.14
2018-04-29T09:36:31.445Z,16.42
2018-04-29T09:37:38.926Z,16.73
2018-04-29T09:38:44.461Z,16.91
2018-04-29T09:39:50.967Z,17.15
2018-04-29T09:40:57.497Z,17.47
2018-04-29T09:42:05.058Z,17.71
2018-04-29T09:43:10.601Z,17.76
2018-04-29T09:44:16.633Z,17.59
2018-04-29T09:45:23.664Z,17.38
2018-04-29T09:46:30.205Z,17.17
2018-04-29T09:47:36.741Z,16.88
2018-04-29T09:48:43.262Z,16.67
2018-04-29T09:49:49.763Z,16.48
2018-04-29T09:50:56.397Z,16.33
2018-04-29T09:52:02.420Z,16.26
2018-04-29T09:53:09.301Z,16.07
2018-04-29T09:54:15.801Z,15.94
2018-04-29T09:55:22.278Z,15.81
2018-04-29T09:56:28.773Z,15.74
2018-04-29T09:57:35.287Z,15.82
2018-04-29T09:58:41.774Z,16.12
2018-04-29T09:59:48.286Z,16.54
2018-04-29T10:00:54.815Z,16.99
2018-04-29T10:02:01.366Z,17.36
2018-04-29T10:03:07.870Z,17.64
2018-04-29T10:04:14.454Z,17.99
2018-04-29T10:05:20.983Z,18.59
2018-04-29T10:06:27.063Z,18.99
2018-04-29T10:07:34.158Z,18.91
2018-04-29T10:08:40.731Z,18.91
2018-04-29T10:09:47.867Z,18.85
2018-04-29T10:10:53.420Z,18.94
2018-04-29T10:12:00.543Z,19.00
2018-04-29T10:13:06.625Z,19.01
2018-04-29T10:14:13.722Z,19.11
2018-04-29T10:15:19.853Z,19.26
2018-04-29T10:16:26.986Z,19.47
2018-04-29T10:17:33.609Z,19.52
2018-04-29T10:18:40.255Z,19.61
2018-04-29T10:19:46.889Z,19.72
2018-04-29T10:20:53.539Z,19.83
2018-04-29T10:22:00.205Z,20.11
2018-04-29T10:23:06.868Z,19.74
2018-04-29T10:24:14.014Z,19.73
2018-04-29T10:25:20.172Z,20.02
2018-04-29T10:26:26.350Z,20.24
2018-04-29T10:27:33.529Z,20.35
2018-04-29T10:28:39.874Z,19.94
2018-04-29T10:29:46.782Z,19.67
2018-04-29T10:30:52.919Z,19.56
2018-04-29T10:32:00.082Z,19.50
2018-04-29T10:33:06.222Z,19.53
2018-04-29T10:34:13.338Z,19.59
2018-04-29T10:35:20.003Z,19.64
2018-04-29T10:36:26.631Z,19.64
2018-04-29T10:37:33.302Z,19.42
2018-04-29T10:38:39.415Z,19.48
2018-04-29T10:39:46.551Z,19.05
2018-04-29T10:40:52.667Z,18.92
2018-04-29T10:42:00.277Z,18.61
2018-04-29T10:43:06.405Z,18.48
2018-04-29T10:44:13.002Z,18.45
2018-04-29T10:45:19.604Z,18.39
2018-04-29T10:46:26.192Z,18.27
2018-04-29T10:47:32.414Z,18.30
2018-04-29T10:48:39.369Z,18.35
2018-04-29T10:49:45.984Z,18.35
2018-04-29T10:50:52.056Z,18.39
2018-04-29T10:51:59.157Z,18.53
2018-04-29T10:53:05.971Z,18.50
2018-04-29T10:54:12.701Z,18.58
2018-04-29T10:55:19.103Z,18.53
2018-04-29T10:56:27.077Z,18.46
2018-04-29T10:57:32.116Z,18.39
2018-04-29T10:58:38.752Z,18.45
2018-04-29T10:59:44.772Z,18.50
2018-04-29T11:00:51.853Z,18.64
2018-04-29T11:01:58.477Z,18.75
2018-04-29T11:03:05.064Z,18.95
2018-04-29T11:04:11.169Z,19.22
2018-04-29T11:05:18.281Z,19.38
2018-04-29T11:06:24.888Z,19.35
2018-04-29T11:07:31.553Z,19.49
2018-04-29T11:08:37.660Z,19.41
2018-04-29T11:09:45.782Z,19.32
2018-04-29T11:10:51.448Z,19.22
2018-04-29T11:11:57.661Z,19.04
2018-04-29T11:13:04.843Z,19.04
2018-04-29T11:14:11.153Z,19.18
2018-04-29T11:15:18.428Z,19.40
2018-04-29T11:16:25.304Z,19.55
2018-04-29T11:17:32.211Z,19.70
2018-04-29T11:18:39.117Z,19.85
2018-04-29T11:19:45.567Z,19.94
2018-04-29T11:20:52.534Z,20.02
2018-04-29T11:21:59.542Z,20.03
2018-04-29T11:23:06.552Z,20.20
2018-04-29T11:24:13.614Z,20.35
2018-04-29T11:25:21.169Z,20.53
2018-04-29T11:26:28.269Z,20.74
2018-04-29T11:27:35.408Z,20.61
2018-04-29T11:28:42.558Z,20.48
2018-04-29T11:29:49.160Z,20.50
2018-04-29T11:30:56.803Z,20.64
2018-04-29T11:32:04.008Z,20.73
2018-04-29T11:33:11.161Z,20.60
2018-04-29T11:34:18.396Z,20.42
2018-04-29T11:35:26.637Z,20.37
2018-04-29T11:36:32.403Z,20.35
2018-04-29T11:37:39.689Z,20.36
2018-04-29T11:38:46.958Z,20.52
2018-04-29T11:39:54.776Z,20.68
2018-04-29T11:41:02.104Z,20.67
2018-04-29T11:42:08.995Z,20.70
2018-04-29T11:43:16.354Z,20.64
2018-04-29T11:44:24.236Z,20.51
2018-04-29T11:45:31.642Z,20.51
2018-04-29T11:46:39.071Z,20.55
2018-04-29T11:47:46.493Z,20.58
2018-04-29T11:48:53.923Z,20.58
2018-04-29T11:50:01.396Z,20.56
2018-04-29T11:51:08.855Z,20.54
2018-04-29T11:52:16.416Z,20.68
2018-04-29T11:53:23.842Z,20.91
2018-04-29T11:54:31.352Z,21.11
2018-04-29T11:55:38.367Z,21.37
2018-04-29T11:56:45.902Z,21.28
2018-04-29T11:57:53.972Z,21.13
2018-04-29T11:59:01.526Z,21.17
2018-04-29T12:00:08.602Z,21.15
2018-04-29T12:01:16.661Z,21.40
2018-04-29T12:02:24.257Z,21.43
2018-04-29T12:03:31.813Z,21.31
2018-04-29T12:04:38.911Z,21.29
2018-04-29T12:05:46.997Z,21.26
2018-04-29T12:06:54.079Z,21.26
2018-04-29T12:08:02.121Z,21.37
2018-04-29T12:09:09.133Z,21.61
2018-04-29T12:10:17.173Z,21.63
2018-04-29T12:11:25.248Z,21.69
2018-04-29T12:12:32.415Z,21.98
2018-04-29T12:13:39.478Z,22.30
2018-04-29T12:14:47.590Z,22.21
2018-04-29T12:15:54.717Z,22.04
2018-04-29T12:17:02.881Z,21.85
2018-04-29T12:18:11.064Z,21.92
2018-04-29T12:19:18.214Z,21.93
2018-04-29T12:20:26.878Z,21.80
2018-04-29T12:21:33.086Z,21.65
2018-04-29T12:22:41.269Z,21.83
2018-04-29T12:23:48.445Z,22.03
2018-04-29T12:24:56.637Z,22.15
2018-04-29T12:26:04.387Z,22.19
2018-04-29T12:27:12.050Z,22.34
2018-04-29T12:28:19.229Z,22.41
2018-04-29T12:29:26.946Z,22.41
2018-04-29T12:30:35.118Z,22.36
2018-04-29T12:31:42.828Z,22.42
2018-04-29T12:32:50.563Z,22.54
2018-04-29T12:33:57.759Z,22.77
2018-04-29T12:35:05.974Z,22.77
2018-04-29T12:36:13.209Z,22.73
2018-04-29T12:37:20.984Z,22.91
2018-04-29T12:38:28.666Z,22.95
2018-04-29T12:39:36.882Z,22.94
2018-04-29T12:40:44.631Z,22.88
2018-04-29T12:41:51.876Z,22.76
2018-04-29T12:42:59.634Z,22.68
2018-04-29T12:44:07.365Z,22.87
2018-04-29T12:45:15.637Z,23.01
2018-04-29T12:46:23.422Z,23.31
2018-04-29T12:47:30.768Z,23.52
2018-04-29T12:48:38.594Z,23.80
2018-04-29T12:49:46.471Z,23.85
2018-04-29T12:50:54.821Z,23.86
2018-04-29T12:52:02.217Z,23.98
2018-04-29T12:53:10.645Z,23.95
2018-04-29T12:54:18.567Z,24.11
2018-04-29T12:55:26.524Z,23.87
2018-04-29T12:56:34.506Z,23.87
2018-04-29T12:57:42.041Z,24.07
2018-04-29T12:58:50.034Z,24.24
2018-04-29T12:59:58.557Z,24.45
2018-04-29T13:01:06.581Z,24.65
2018-04-29T13:02:14.636Z,24.65
2018-04-29T13:03:22.188Z,24.61
2018-04-29T13:04:30.204Z,24.73
2018-04-29T13:05:38.309Z,24.91
2018-04-29T13:06:46.774Z,24.87
2018-04-29T13:07:54.818Z,24.55
2018-04-29T13:09:02.796Z,24.61
2018-04-29T13:10:10.785Z,24.93
2018-04-29T13:11:18.723Z,25.10
2018-04-29T13:12:26.690Z,24.76
2018-04-29T13:13:34.087Z,24.57
2018-04-29T13:14:41.986Z,24.48
2018-04-29T13:15:49.893Z,24.76
2018-04-29T13:16:58.275Z,24.80
2018-04-29T13:18:05.663Z,24.83
2018-04-29T13:19:14.499Z,24.86
2018-04-29T13:20:21.867Z,24.67
2018-04-29T13:21:29.756Z,24.69
2018-04-29T13:22:37.085Z,24.73
2018-04-29T13:23:46.393Z,24.93
2018-04-29T13:24:52.729Z,25.05
2018-04-29T13:26:00.564Z,25.17
2018-04-29T13:27:08.874Z,25.15
2018-04-29T13:28:16.219Z,25.11
2018-04-29T13:29:24.206Z,24.84
2018-04-29T13:30:32.403Z,24.55
2018-04-29T13:31:40.147Z,24.42
2018-04-29T13:32:47.471Z,24.59
2018-04-29T13:33:55.270Z,24.76
2018-04-29T13:35:03.605Z,24.84
2018-04-29T13:36:10.871Z,24.90
2018-04-29T13:37:18.682Z,24.98
2018-04-29T13:38:26.991Z,24.78
2018-04-29T13:39:34.280Z,24.71
2018-04-29T13:40:42.560Z,24.85
2018-04-29T13:41:50.400Z,24.95
2018-04-29T13:42:57.677Z,24.80
2018-04-29T13:44:05.962Z,24.48
2018-04-29T13:45:13.770Z,24.44
2018-04-29T13:46:21.216Z,24.35
2018-04-29T13:47:28.866Z,24.32
2018-04-29T13:48:37.336Z,24.34
2018-04-29T13:52:42.989Z,25.32
2018-04-29T13:53:50.444Z,25.49
2018-04-29T13:54:58.069Z,25.56
2018-04-29T13:56:05.857Z,25.63
2018-04-29T13:57:13.680Z,25.81
2018-04-29T13:58:22.006Z,25.60
2018-04-29T13:59:29.957Z,25.31
2018-04-29T14:00:37.149Z,25.04
2018-04-29T14:01:45.494Z,24.96
2018-04-29T14:02:53.390Z,25.07
2018-04-29T14:04:01.161Z,25.05
2018-04-29T14:05:09.402Z,24.98
2018-04-29T14:06:16.699Z,24.87
2018-04-29T14:07:24.021Z,24.76
2018-04-29T14:08:31.823Z,24.75
2018-04-29T14:09:39.532Z,24.70
2018-04-29T14:10:47.799Z,24.64
2018-04-29T14:11:55.567Z,24.75
2018-04-29T14:13:02.891Z,24.73
2018-04-29T14:14:10.999Z,24.79
2018-04-29T14:15:18.380Z,24.79
2018-04-29T14:16:26.458Z,24.70
2018-04-29T14:17:33.660Z,24.83
2018-04-29T14:18:41.892Z,24.81
2018-04-29T14:19:49.060Z,24.70
2018-04-29T14:20:57.224Z,24.54
2018-04-29T14:22:04.408Z,24.53
2018-04-29T14:23:12.088Z,24.68
2018-04-29T14:24:20.255Z,24.75
2018-04-29T14:25:28.077Z,24.72
2018-04-29T14:26:35.666Z,24.71
2018-04-29T14:27:42.730Z,24.70
2018-04-29T14:28:50.833Z,24.79
2018-04-29T14:29:57.988Z,24.98
2018-04-29T14:31:05.590Z,24.86